createdAt,value
2022-10-20T00:00:41.126Z,9.32
2022-10-20T00:01:41.137Z,9.33
2022-10-20T00:02:41.167Z,9.33
2022-10-20T00:03:41.102Z,9.34
2022-10-20T00:04:41.139Z,9.34
2022-10-20T00:05:41.076Z,9.34
2022-10-20T00:06:41.106Z,9.35
2022-10-20T00:07:41.182Z,9.35
2022-10-20T00:08:41.109Z,9.34
2022-10-20T00:09:41.113Z,9.32
2022-10-20T00:10:41.055Z,9.29
2022-10-20T00:11:41.092Z,9.28
2022-10-20T00:12:41.003Z,9.27
2022-10-20T00:13:40.990Z,9.27
2022-10-20T00:14:40.978Z,9.27
2022-10-20T00:15:41.064Z,9.28
2022-10-20T00:16:40.956Z,9.29
2022-10-20T00:17:40.977Z,9.29
2022-10-20T00:18:41.020Z,9.27
2022-10-20T00:19:40.944Z,9.25
2022-10-20T00:20:40.921Z,9.25
2022-10-20T00:21:40.985Z,9.25
2022-10-20T00:22:40.902Z,9.26
2022-10-20T00:23:40.897Z,9.26
2022-10-20T00:24:40.938Z,9.26
2022-10-20T00:25:40.866Z,9.25
2022-10-20T00:26:40.921Z,9.24
2022-10-20T00:27:40.863Z,9.22
2022-10-20T00:28:40.855Z,9.19
2022-10-20T00:29:40.839Z,9.15
2022-10-20T00:30:40.841Z,9.10
2022-10-20T00:31:40.890Z,9.05
2022-10-20T00:32:40.792Z,9.02
2022-10-20T00:33:40.802Z,9.00
2022-10-20T00:34:40.771Z,9.00
2022-10-20T00:35:40.798Z,9.01
2022-10-20T00:36:40.762Z,9.02
2022-10-20T00:37:40.832Z,9.05
2022-10-20T00:38:40.729Z,9.07
2022-10-20T00:39:40.786Z,9.10
2022-10-20T00:40:40.722Z,9.12
2022-10-20T00:41:40.718Z,9.14
2022-10-20T00:42:40.745Z,9.16
2022-10-20T00:43:40.689Z,9.17
2022-10-20T00:44:40.679Z,9.18
2022-10-20T00:45:40.662Z,9.20
2022-10-20T00:46:40.706Z,9.20
2022-10-20T00:47:40.708Z,9.21
2022-10-20T00:48:40.674Z,9.20
2022-10-20T00:49:40.687Z,9.19
2022-10-20T00:50:40.630Z,9.18
2022-10-20T00:51:40.599Z,9.18
2022-10-20T00:52:40.593Z,9.18
2022-10-20T00:53:40.581Z,9.19
2022-10-20T00:54:40.660Z,9.19
2022-10-20T00:55:40.563Z,9.19
2022-10-20T00:56:40.549Z,9.20
2022-10-20T00:57:40.589Z,9.21
2022-10-20T00:58:40.532Z,9.21
2022-10-20T00:59:40.599Z,9.21
2022-10-20T01:00:40.543Z,9.20
2022-10-20T01:01:40.556Z,9.19
2022-10-20T01:02:40.541Z,9.18
2022-10-20T01:03:40.490Z,9.17
2022-10-20T01:04:40.476Z,9.17
2022-10-20T01:05:40.536Z,9.17
2022-10-20T01:06:40.445Z,9.17
2022-10-20T01:07:40.496Z,9.18
2022-10-20T01:08:40.458Z,9.19
2022-10-20T01:09:40.464Z,9.19
2022-10-20T01:10:40.413Z,9.18
2022-10-20T01:11:40.429Z,9.16
2022-10-20T01:12:40.406Z,9.15
2022-10-20T01:13:40.434Z,9.14
2022-10-20T01:14:40.389Z,9.13
2022-10-20T01:15:40.386Z,9.13
2022-10-20T01:16:40.362Z,9.13
2022-10-20T01:17:40.342Z,9.13
2022-10-20T01:18:40.381Z,9.13
2022-10-20T01:19:40.347Z,9.14
2022-10-20T01:20:40.322Z,9.14
2022-10-20T01:21:40.295Z,9.13
2022-10-20T01:22:40.327Z,9.13
2022-10-20T01:23:40.289Z,9.14
2022-10-20T01:24:40.311Z,9.14
2022-10-20T01:25:40.255Z,9.14
2022-10-20T01:26:40.273Z,9.13
2022-10-20T01:27:40.416Z,9.12
2022-10-20T01:28:40.239Z,9.11
2022-10-20T01:29:40.263Z,9.09
2022-10-20T01:30:40.271Z,9.07
2022-10-20T01:31:40.261Z,9.06
2022-10-20T01:32:40.215Z,9.05
2022-10-20T01:33:40.198Z,9.04
2022-10-20T01:34:40.175Z,9.04
2022-10-20T01:35:40.219Z,9.04
2022-10-20T01:36:40.186Z,9.03
2022-10-20T01:37:49.008Z,9.03
2022-10-20T01:38:40.132Z,9.03
2022-10-20T01:39:40.133Z,9.02
2022-10-20T01:40:40.104Z,9.02
2022-10-20T01:41:40.175Z,9.03
2022-10-20T01:42:40.302Z,9.04
2022-10-20T01:43:40.088Z,9.05
2022-10-20T01:44:40.094Z,9.06
2022-10-20T01:45:40.064Z,9.05
2022-10-20T01:46:40.075Z,9.04
2022-10-20T01:47:40.100Z,9.02
2022-10-20T01:48:40.087Z,9.00
2022-10-20T01:49:40.021Z,8.97
2022-10-20T01:50:40.059Z,8.94
2022-10-20T01:52:39.996Z,8.88
2022-10-20T01:53:40.026Z,8.86
2022-10-20T01:54:39.962Z,8.85
2022-10-20T01:55:39.959Z,8.84
2022-10-20T01:56:39.995Z,8.83
2022-10-20T01:57:39.981Z,8.81
2022-10-20T01:58:39.934Z,8.80
2022-10-20T01:59:39.974Z,8.78
2022-10-20T02:00:39.919Z,8.77
2022-10-20T02:01:39.960Z,8.75
2022-10-20T02:02:39.970Z,8.73
2022-10-20T02:03:39.962Z,8.72
2022-10-20T02:04:39.866Z,8.71
2022-10-20T02:05:39.875Z,8.70
2022-10-20T02:06:39.854Z,8.69
2022-10-20T02:07:39.829Z,8.69
2022-10-20T02:08:39.931Z,8.68
2022-10-20T02:09:39.858Z,8.67
2022-10-20T02:10:39.899Z,8.66
2022-10-20T02:11:39.804Z,8.64
2022-10-20T02:12:39.911Z,8.62
2022-10-20T02:13:39.766Z,8.60
2022-10-20T02:14:39.829Z,8.58
2022-10-20T02:15:39.773Z,8.56
2022-10-20T02:16:39.791Z,8.54
2022-10-20T02:17:39.760Z,8.53
2022-10-20T02:18:39.770Z,8.51
2022-10-20T02:19:39.715Z,8.50
2022-10-20T02:20:39.714Z,8.48
2022-10-20T02:21:39.777Z,8.47
2022-10-20T02:22:39.699Z,8.46
2022-10-20T02:23:39.668Z,8.45
2022-10-20T02:24:39.733Z,8.44
2022-10-20T02:25:39.645Z,8.43
2022-10-20T02:26:39.727Z,8.41
2022-10-20T02:27:39.651Z,8.39
2022-10-20T02:28:39.666Z,8.37
2022-10-20T02:29:39.625Z,8.36
2022-10-20T02:30:39.619Z,8.36
2022-10-20T02:31:39.594Z,8.35
2022-10-20T02:32:39.802Z,8.34
2022-10-20T02:33:39.566Z,8.34
2022-10-20T02:34:42.407Z,8.33
2022-10-20T02:35:39.635Z,8.33
2022-10-20T02:36:39.551Z,8.31
2022-10-20T02:37:39.872Z,8.30
2022-10-20T02:38:39.532Z,8.30
2022-10-20T02:39:39.522Z,8.30
2022-10-20T02:40:39.502Z,8.31
2022-10-20T02:41:39.541Z,8.31
2022-10-20T02:42:39.528Z,8.31
2022-10-20T02:43:39.481Z,8.30
2022-10-20T02:44:39.464Z,8.30
2022-10-20T02:45:39.528Z,8.31
2022-10-20T02:46:39.442Z,8.30
2022-10-20T02:47:39.785Z,8.29
2022-10-20T02:48:39.505Z,8.29
2022-10-20T02:49:39.404Z,8.28
2022-10-20T02:50:39.402Z,8.27
2022-10-20T02:51:39.456Z,8.27
2022-10-20T02:52:39.449Z,8.27
2022-10-20T02:53:39.370Z,8.28
2022-10-20T02:54:39.368Z,8.28
2022-10-20T02:55:39.351Z,8.27
2022-10-20T02:56:39.367Z,8.26
2022-10-20T02:57:39.708Z,8.26
2022-10-20T02:58:39.382Z,8.25
2022-10-20T02:59:39.370Z,8.23
2022-10-20T03:00:39.308Z,8.23
2022-10-20T03:01:39.364Z,8.22
2022-10-20T03:02:39.282Z,8.21
2022-10-20T03:03:39.317Z,8.21
2022-10-20T03:04:39.260Z,8.20
2022-10-20T03:05:39.307Z,8.18
2022-10-20T03:06:39.289Z,8.16
2022-10-20T03:07:39.331Z,8.15
2022-10-20T03:08:39.284Z,8.14
2022-10-20T03:09:39.254Z,8.13
2022-10-20T03:10:39.209Z,8.14
2022-10-20T03:11:39.198Z,8.13
2022-10-20T03:12:39.182Z,8.13
2022-10-20T03:13:39.175Z,8.12
2022-10-20T03:14:39.205Z,8.11
2022-10-20T03:15:39.190Z,8.11
2022-10-20T03:16:39.141Z,8.10
2022-10-20T03:17:39.348Z,8.09
2022-10-20T03:18:39.140Z,8.08
2022-10-20T03:19:39.103Z,8.08
2022-10-20T03:20:39.097Z,8.06
2022-10-20T03:21:39.094Z,8.05
2022-10-20T03:22:39.078Z,8.04
2022-10-20T03:23:39.113Z,8.03
2022-10-20T03:24:39.066Z,8.02
2022-10-20T03:25:39.052Z,8.01
2022-10-20T03:26:39.037Z,8.01
2022-10-20T03:27:39.328Z,8.01
2022-10-20T03:28:39.063Z,8.02
2022-10-20T03:29:39.025Z,8.02
2022-10-20T03:30:39.002Z,8.03
2022-10-20T03:31:39.038Z,8.05
2022-10-20T03:32:39.348Z,8.06
2022-10-20T03:33:39.009Z,8.07
2022-10-20T03:34:39.017Z,8.07
2022-10-20T03:35:38.969Z,8.08
2022-10-20T03:36:38.940Z,8.08
2022-10-20T03:37:38.924Z,8.07
2022-10-20T03:38:39.013Z,8.06
2022-10-20T03:39:38.933Z,8.05
2022-10-20T03:40:38.953Z,8.05
2022-10-20T03:41:39.048Z,8.06
2022-10-20T03:42:39.085Z,8.06
2022-10-20T03:43:38.859Z,8.05
2022-10-20T03:44:38.862Z,8.04
2022-10-20T03:45:38.873Z,8.04
2022-10-20T03:46:38.851Z,8.05
2022-10-20T03:47:38.900Z,8.05
2022-10-20T03:48:38.826Z,8.04
2022-10-20T03:49:38.797Z,8.03
2022-10-20T03:50:38.793Z,8.03
2022-10-20T03:51:38.825Z,8.02
2022-10-20T03:52:39.119Z,8.01
2022-10-20T03:53:38.759Z,8.00
2022-10-20T03:54:38.798Z,7.99
2022-10-20T03:55:38.746Z,7.99
2022-10-20T03:56:38.792Z,7.99
2022-10-20T03:57:39.033Z,8.01
2022-10-20T03:58:38.714Z,8.02
2022-10-20T03:59:38.697Z,8.02
2022-10-20T04:00:38.737Z,8.02
2022-10-20T04:01:38.720Z,8.02
2022-10-20T04:02:39.115Z,8.03
2022-10-20T04:03:38.656Z,8.04
2022-10-20T04:04:38.686Z,8.04
2022-10-20T04:05:38.762Z,8.05
2022-10-20T04:06:38.707Z,8.06
2022-10-20T04:07:38.623Z,8.07
2022-10-20T04:08:38.655Z,8.07
2022-10-20T04:09:38.596Z,8.07
2022-10-20T04:10:38.648Z,8.07
2022-10-20T04:11:38.631Z,8.08
2022-10-20T04:12:39.107Z,8.08
2022-10-20T04:13:38.564Z,8.09
2022-10-20T04:14:38.557Z,8.09
2022-10-20T04:15:38.543Z,8.10
2022-10-20T04:16:38.612Z,8.12
2022-10-20T04:18:38.534Z,8.14
2022-10-20T04:19:38.501Z,8.15
2022-10-20T04:20:40.706Z,8.16
2022-10-20T04:21:38.487Z,8.16
2022-10-20T04:22:38.901Z,8.16
2022-10-20T04:23:38.491Z,8.17
2022-10-20T04:24:38.496Z,8.19
2022-10-20T04:25:38.493Z,8.20
2022-10-20T04:26:38.490Z,8.20
2022-10-20T04:27:38.642Z,8.20
2022-10-20T04:28:38.416Z,8.21
2022-10-20T04:29:38.449Z,8.22
2022-10-20T04:30:38.398Z,8.22
2022-10-20T04:31:38.437Z,8.23
2022-10-20T04:32:38.370Z,8.23
2022-10-20T04:33:38.366Z,8.25
2022-10-20T04:34:38.403Z,8.26
2022-10-20T04:35:38.366Z,8.27
2022-10-20T04:36:38.364Z,8.27
2022-10-20T04:37:38.687Z,8.28
2022-10-20T04:38:38.384Z,8.28
2022-10-20T04:39:38.317Z,8.27
2022-10-20T04:40:38.290Z,8.27
2022-10-20T04:41:38.350Z,8.26
2022-10-20T04:42:38.274Z,8.25
2022-10-20T04:43:38.259Z,8.24
2022-10-20T04:44:38.252Z,8.24
2022-10-20T04:45:38.301Z,8.24
2022-10-20T04:46:38.273Z,8.24
2022-10-20T04:47:38.766Z,8.25
2022-10-20T04:48:38.221Z,8.26
2022-10-20T04:49:38.192Z,8.26
2022-10-20T04:50:38.251Z,8.26
2022-10-20T04:51:38.175Z,8.25
2022-10-20T04:52:38.234Z,8.25
2022-10-20T04:53:38.173Z,8.24
2022-10-20T04:54:38.205Z,8.23
2022-10-20T04:55:38.142Z,8.23
2022-10-20T04:56:38.136Z,8.23
2022-10-20T04:57:38.386Z,8.23
2022-10-20T04:58:38.114Z,8.23
2022-10-20T04:59:38.150Z,8.23
2022-10-20T05:00:38.125Z,8.24
2022-10-20T05:01:38.137Z,8.24
2022-10-20T05:02:38.089Z,8.24
2022-10-20T05:03:38.052Z,8.23
2022-10-20T05:04:38.096Z,8.22
2022-10-20T05:05:38.041Z,8.22
2022-10-20T05:06:38.031Z,8.22
2022-10-20T05:07:38.502Z,8.22
2022-10-20T05:08:38.068Z,8.22
2022-10-20T05:09:38.038Z,8.23
2022-10-20T05:10:37.985Z,8.24
2022-10-20T05:11:37.992Z,8.25
2022-10-20T05:12:38.400Z,8.26
2022-10-20T05:13:37.953Z,8.27
2022-10-20T05:14:38.009Z,8.28
2022-10-20T05:15:37.948Z,8.30
2022-10-20T05:16:37.930Z,8.31
2022-10-20T05:17:37.976Z,8.32
2022-10-20T05:18:37.913Z,8.33
2022-10-20T05:19:37.950Z,8.34
2022-10-20T05:20:41.333Z,8.33
2022-10-20T05:21:37.946Z,8.32
2022-10-20T05:22:38.173Z,8.31
2022-10-20T05:23:37.807Z,8.29
2022-10-20T05:24:37.883Z,8.28
2022-10-20T05:25:37.788Z,8.27
2022-10-20T05:26:37.831Z,8.27
2022-10-20T05:27:37.775Z,8.27
2022-10-20T05:28:37.761Z,8.28
2022-10-20T05:29:37.753Z,8.29
2022-10-20T05:30:37.831Z,8.29
2022-10-20T05:31:37.723Z,8.29
2022-10-20T05:32:38.100Z,8.29
2022-10-20T05:33:37.693Z,8.30
2022-10-20T05:34:37.747Z,8.30
2022-10-20T05:35:37.685Z,8.30
2022-10-20T05:36:37.677Z,8.28
2022-10-20T05:37:37.664Z,8.27
2022-10-20T05:38:37.673Z,8.26
2022-10-20T05:39:37.746Z,8.25
2022-10-20T05:40:37.632Z,8.24
2022-10-20T05:41:39.035Z,8.24
2022-10-20T05:42:37.993Z,8.25
2022-10-20T05:43:37.636Z,8.25
2022-10-20T05:44:37.638Z,8.26
2022-10-20T05:45:37.588Z,8.26
2022-10-20T05:46:37.582Z,8.26
2022-10-20T05:47:37.555Z,8.27
2022-10-20T05:48:42.832Z,8.27
2022-10-20T05:49:37.593Z,8.28
2022-10-20T05:50:37.576Z,8.30
2022-10-20T05:51:37.563Z,8.31
2022-10-20T05:52:38.115Z,8.31
2022-10-20T05:53:37.504Z,8.32
2022-10-20T05:54:37.519Z,8.32
2022-10-20T05:55:37.485Z,8.32
2022-10-20T05:56:37.483Z,8.32
2022-10-20T05:57:37.479Z,8.33
2022-10-20T05:58:37.505Z,8.33
2022-10-20T05:59:37.444Z,8.33
2022-10-20T06:00:37.435Z,8.34
2022-10-20T06:01:37.457Z,8.34
2022-10-20T06:02:37.721Z,8.35
2022-10-20T06:03:37.437Z,8.36
2022-10-20T06:04:37.473Z,8.37
2022-10-20T06:05:37.539Z,8.38
2022-10-20T06:06:37.414Z,8.39
2022-10-20T06:07:37.385Z,8.40
2022-10-20T06:08:37.580Z,8.40
2022-10-20T06:09:37.440Z,8.40
2022-10-20T06:10:37.436Z,8.41
2022-10-20T06:11:39.536Z,8.42
2022-10-20T06:12:37.645Z,8.43
2022-10-20T06:13:37.305Z,8.44
2022-10-20T06:14:37.363Z,8.45
2022-10-20T06:15:37.285Z,8.46
2022-10-20T06:16:37.279Z,8.47
2022-10-20T06:17:37.266Z,8.47
2022-10-20T06:18:37.306Z,8.48
2022-10-20T06:19:37.237Z,8.48
2022-10-20T06:20:37.231Z,8.49
2022-10-20T06:21:37.315Z,8.50
2022-10-20T06:22:37.497Z,8.51
2022-10-20T06:23:37.360Z,8.52
2022-10-20T06:24:37.241Z,8.53
2022-10-20T06:25:37.181Z,8.53
2022-10-20T06:26:37.184Z,8.53
2022-10-20T06:27:37.218Z,8.53
2022-10-20T06:28:37.150Z,8.54
2022-10-20T06:29:37.143Z,8.55
2022-10-20T06:30:37.347Z,8.56
2022-10-20T06:31:37.120Z,8.57
2022-10-20T06:32:37.343Z,8.57
2022-10-20T06:33:37.170Z,8.58
2022-10-20T06:34:37.110Z,8.59
2022-10-20T06:35:37.090Z,8.59
2022-10-20T06:36:37.085Z,8.60
2022-10-20T06:37:37.131Z,8.60
2022-10-20T06:38:37.040Z,8.61
2022-10-20T06:39:37.040Z,8.63
2022-10-20T06:40:37.026Z,8.64
2022-10-20T06:41:37.055Z,8.65
2022-10-20T06:42:37.429Z,8.66
2022-10-20T06:43:36.997Z,8.68
2022-10-20T06:44:37.002Z,8.69
2022-10-20T06:45:36.981Z,8.70
2022-10-20T06:46:37.021Z,8.71
2022-10-20T06:47:37.120Z,8.71
2022-10-20T06:48:36.945Z,8.73
2022-10-20T06:49:36.985Z,8.74
2022-10-20T06:50:36.942Z,8.75
2022-10-20T06:51:36.919Z,8.77
2022-10-20T06:52:37.191Z,8.79
2022-10-20T06:53:36.893Z,8.80
2022-10-20T06:54:36.963Z,8.81
2022-10-20T06:55:36.899Z,8.83
2022-10-20T06:56:36.860Z,8.85
2022-10-20T06:57:36.895Z,8.87
2022-10-20T06:58:36.840Z,8.88
2022-10-20T06:59:36.840Z,8.88
2022-10-20T07:00:36.860Z,8.90
2022-10-20T07:01:37.005Z,8.92
2022-10-20T07:02:37.121Z,8.94
2022-10-20T07:03:36.815Z,8.97
2022-10-20T07:04:36.809Z,9.00
2022-10-20T07:05:36.793Z,9.02
2022-10-20T07:06:36.797Z,9.03
2022-10-20T07:08:36.833Z,9.04
2022-10-20T07:09:36.787Z,9.04
2022-10-20T07:10:36.795Z,9.04
2022-10-20T07:11:36.738Z,9.05
2022-10-20T07:12:37.153Z,9.06
2022-10-20T07:13:36.788Z,9.08
2022-10-20T07:14:36.984Z,9.09
2022-10-20T07:15:36.768Z,9.10
2022-10-20T07:16:36.741Z,9.12
2022-10-20T07:17:36.895Z,9.14
2022-10-20T07:18:36.705Z,9.17
2022-10-20T07:19:36.634Z,9.19
2022-10-20T07:20:36.803Z,9.21
2022-10-20T07:21:39.136Z,9.23
2022-10-20T07:22:37.178Z,9.25
2022-10-20T07:23:36.587Z,9.27
2022-10-20T07:24:36.619Z,9.29
2022-10-20T07:25:36.572Z,9.32
2022-10-20T07:26:36.599Z,9.34
2022-10-20T07:27:36.554Z,9.37
2022-10-20T07:28:36.549Z,9.39
2022-10-20T07:29:36.580Z,9.42
2022-10-20T07:30:36.528Z,9.44
2022-10-20T07:31:36.513Z,9.46
2022-10-20T07:32:36.916Z,9.49
2022-10-20T07:33:36.509Z,9.51
2022-10-20T07:34:36.519Z,9.53
2022-10-20T07:35:36.513Z,9.55
2022-10-20T07:36:36.460Z,9.56
2022-10-20T07:37:36.787Z,9.57
2022-10-20T07:38:36.441Z,9.58
2022-10-20T07:39:36.441Z,9.59
2022-10-20T07:40:36.423Z,9.61
2022-10-20T07:41:36.503Z,9.63
2022-10-20T07:42:36.627Z,9.64
2022-10-20T07:43:36.448Z,9.64
2022-10-20T07:44:36.374Z,9.65
2022-10-20T07:45:36.374Z,9.66
2022-10-20T07:46:36.400Z,9.67
2022-10-20T07:47:38.602Z,9.67
2022-10-20T07:48:36.349Z,9.67
2022-10-20T07:49:44.017Z,9.67
2022-10-20T07:50:36.332Z,9.67
2022-10-20T07:51:36.309Z,9.67
2022-10-20T07:52:36.691Z,9.68
2022-10-20T07:53:36.341Z,9.69
2022-10-20T07:54:36.295Z,9.71
2022-10-20T07:55:38.911Z,9.72
2022-10-20T07:56:36.300Z,9.72
2022-10-20T07:57:36.318Z,9.73
2022-10-20T07:58:36.246Z,9.73
2022-10-20T07:59:36.221Z,9.73
2022-10-20T08:00:36.289Z,9.73
2022-10-20T08:01:36.279Z,9.72
2022-10-20T08:02:36.525Z,9.72
2022-10-20T08:03:36.190Z,9.72
2022-10-20T08:04:36.224Z,9.71
2022-10-20T08:05:36.210Z,9.71
2022-10-20T08:06:36.172Z,9.72
2022-10-20T08:07:36.248Z,9.74
2022-10-20T08:08:36.166Z,9.76
2022-10-20T08:09:36.195Z,9.78
2022-10-20T08:10:36.119Z,9.79
2022-10-20T08:11:36.106Z,9.81
2022-10-20T08:12:36.430Z,9.82
2022-10-20T08:13:36.083Z,9.80
2022-10-20T08:14:36.066Z,9.79
2022-10-20T08:15:36.131Z,9.78
2022-10-20T08:16:37.454Z,9.79
2022-10-20T08:17:36.146Z,9.80
2022-10-20T08:18:36.069Z,9.82
2022-10-20T08:19:37.953Z,9.84
2022-10-20T08:20:36.044Z,9.86
2022-10-20T08:21:36.014Z,9.86
2022-10-20T08:22:36.305Z,9.87
2022-10-20T08:23:35.987Z,9.89
2022-10-20T08:24:35.980Z,9.92
2022-10-20T08:25:35.966Z,9.97
2022-10-20T08:26:35.961Z,9.99
2022-10-20T08:27:36.004Z,10.00
2022-10-20T08:28:35.980Z,10.02
2022-10-20T08:29:35.925Z,10.03
2022-10-20T08:30:35.940Z,10.03
2022-10-20T08:31:35.950Z,10.04
2022-10-20T08:32:36.242Z,10.04
2022-10-20T08:33:35.885Z,10.04
2022-10-20T08:34:35.869Z,10.04
2022-10-20T08:35:35.857Z,10.03
2022-10-20T08:36:35.859Z,10.02
2022-10-20T08:37:36.193Z,10.02
2022-10-20T08:38:35.825Z,10.01
2022-10-20T08:39:35.860Z,10.01
2022-10-20T08:40:35.802Z,10.02
2022-10-20T08:41:55.449Z,10.06
2022-10-20T08:42:35.853Z,10.10
2022-10-20T08:43:35.793Z,10.12
2022-10-20T08:44:35.766Z,10.09
2022-10-20T08:45:38.379Z,10.06
2022-10-20T08:46:35.744Z,10.02
2022-10-20T08:47:36.277Z,9.98
2022-10-20T08:48:35.725Z,9.97
2022-10-20T08:49:35.721Z,9.97
2022-10-20T08:50:35.704Z,9.97
2022-10-20T08:51:35.741Z,9.96
2022-10-20T08:52:35.701Z,9.94
2022-10-20T08:53:35.672Z,9.92
2022-10-20T08:54:35.683Z,9.91
2022-10-20T08:55:35.655Z,9.93
2022-10-20T08:56:35.708Z,9.96
2022-10-20T08:57:36.495Z,9.99
2022-10-20T08:58:35.624Z,10.03
2022-10-20T08:59:39.176Z,10.07
2022-10-20T09:00:35.642Z,10.11
2022-10-20T09:01:35.718Z,10.16
2022-10-20T09:02:35.585Z,10.20
2022-10-20T09:03:35.581Z,10.24
2022-10-20T09:04:35.614Z,10.27
2022-10-20T09:05:35.617Z,10.29
2022-10-20T09:06:35.559Z,10.31
2022-10-20T09:07:35.815Z,10.33
2022-10-20T09:08:35.558Z,10.35
2022-10-20T09:09:35.508Z,10.37
2022-10-20T09:10:35.550Z,10.39
2022-10-20T09:11:35.531Z,10.41
2022-10-20T09:12:35.481Z,10.44
2022-10-20T09:13:35.598Z,10.46
2022-10-20T09:14:35.464Z,10.48
2022-10-20T09:15:35.460Z,10.49
2022-10-20T09:16:42.023Z,10.52
2022-10-20T09:17:35.736Z,10.55
2022-10-20T09:18:35.416Z,10.56
2022-10-20T09:19:35.414Z,10.58
2022-10-20T09:20:35.401Z,10.60
2022-10-20T09:21:35.384Z,10.61
2022-10-20T09:22:36.211Z,10.63
2022-10-20T09:23:41.125Z,10.66
2022-10-20T09:24:35.381Z,10.67
2022-10-20T09:25:35.417Z,10.67
2022-10-20T09:26:57.568Z,10.68
2022-10-20T09:27:35.710Z,10.69
2022-10-20T09:28:49.214Z,10.70
2022-10-20T09:29:35.316Z,10.71
2022-10-20T09:30:35.349Z,10.72
2022-10-20T09:31:35.347Z,10.73
2022-10-20T09:32:50.627Z,10.73
2022-10-20T09:33:35.319Z,10.72
2022-10-20T09:34:35.304Z,10.72
2022-10-20T09:35:35.259Z,10.73
2022-10-20T09:36:35.257Z,10.75
2022-10-20T09:37:35.337Z,10.75
2022-10-20T09:38:35.218Z,10.75
2022-10-20T09:39:35.221Z,10.75
2022-10-20T09:40:35.192Z,10.75
2022-10-20T09:41:35.190Z,10.77
2022-10-20T09:42:35.456Z,10.80
2022-10-20T09:43:35.212Z,10.84
2022-10-20T09:44:35.159Z,10.88
2022-10-20T09:45:35.175Z,10.88
2022-10-20T09:46:35.129Z,10.87
2022-10-20T09:47:35.133Z,10.86
2022-10-20T09:48:35.138Z,10.86
2022-10-20T09:49:35.168Z,10.86
2022-10-20T09:50:35.113Z,10.85
2022-10-20T09:51:35.127Z,10.85
2022-10-20T09:52:35.399Z,10.86
2022-10-20T09:53:35.114Z,10.86
2022-10-20T09:54:35.050Z,10.87
2022-10-20T09:55:35.063Z,10.88
2022-10-20T09:56:35.039Z,10.90
2022-10-20T09:57:35.046Z,10.91
2022-10-20T09:58:35.056Z,10.93
2022-10-20T09:59:35.015Z,10.95
2022-10-20T10:00:37.679Z,10.96
2022-10-20T10:01:35.010Z,10.97
2022-10-20T10:02:35.323Z,10.98
2022-10-20T10:03:34.962Z,10.98
2022-10-20T10:04:34.991Z,10.97
2022-10-20T10:05:34.958Z,10.97
2022-10-20T10:06:34.961Z,10.99
2022-10-20T10:07:34.943Z,11.02
2022-10-20T10:08:34.958Z,11.05
2022-10-20T10:09:35.002Z,11.08
2022-10-20T10:10:34.890Z,11.10
2022-10-20T10:11:34.882Z,11.12
2022-10-20T10:12:35.179Z,11.12
2022-10-20T10:13:34.902Z,11.12
2022-10-20T10:14:34.915Z,11.13
2022-10-20T10:15:34.937Z,11.12
2022-10-20T10:16:34.866Z,11.11
2022-10-20T10:17:35.121Z,11.09
2022-10-20T10:18:34.803Z,11.07
2022-10-20T10:19:34.845Z,11.06
2022-10-20T10:20:34.804Z,11.04
2022-10-20T10:21:34.831Z,11.05
2022-10-20T10:22:35.082Z,11.07
2022-10-20T10:23:34.763Z,11.10
2022-10-20T10:24:34.767Z,11.12
2022-10-20T10:25:34.779Z,11.12
2022-10-20T10:26:34.749Z,11.13
2022-10-20T10:27:34.721Z,11.14
2022-10-20T10:28:34.704Z,11.16
2022-10-20T10:29:34.698Z,11.19
2022-10-20T10:30:34.752Z,11.20
2022-10-20T10:31:34.679Z,11.19
2022-10-20T10:32:34.977Z,11.18
2022-10-20T10:33:34.655Z,11.17
2022-10-20T10:34:34.706Z,11.17
2022-10-20T10:35:34.653Z,11.20
2022-10-20T10:36:34.622Z,11.24
2022-10-20T10:37:35.270Z,11.28
2022-10-20T10:38:34.608Z,11.30
2022-10-20T10:39:34.624Z,11.31
2022-10-20T10:40:34.644Z,11.32
2022-10-20T10:41:34.578Z,11.33
2022-10-20T10:42:34.923Z,11.35
2022-10-20T10:43:35.456Z,11.37
2022-10-20T10:44:34.552Z,11.38
2022-10-20T10:45:34.580Z,11.39
2022-10-20T10:46:34.569Z,11.41
2022-10-20T10:47:37.845Z,11.42
2022-10-20T10:48:34.551Z,11.42
2022-10-20T10:49:34.649Z,11.43
2022-10-20T10:50:34.485Z,11.45
2022-10-20T10:51:34.472Z,11.48
2022-10-20T10:52:34.460Z,11.51
2022-10-20T10:53:34.457Z,11.54
2022-10-20T10:54:34.487Z,11.58
2022-10-20T10:55:48.279Z,11.63
2022-10-20T10:56:34.451Z,11.67
2022-10-20T10:57:34.668Z,11.71
2022-10-20T10:58:34.411Z,11.74
2022-10-20T10:59:34.408Z,11.76
2022-10-20T11:00:34.494Z,11.79
2022-10-20T11:01:34.378Z,11.82
2022-10-20T11:02:34.664Z,11.85
2022-10-20T11:03:37.622Z,11.87
2022-10-20T11:04:34.348Z,11.89
2022-10-20T11:05:34.350Z,11.90
2022-10-20T11:06:34.362Z,11.88
2022-10-20T11:07:34.551Z,11.86
2022-10-20T11:08:34.340Z,11.84
2022-10-20T11:09:34.333Z,11.83
2022-10-20T11:10:34.325Z,11.84
2022-10-20T11:11:34.322Z,11.85
2022-10-20T11:12:34.258Z,11.86
2022-10-20T11:13:34.250Z,11.86
2022-10-20T11:14:34.300Z,11.87
2022-10-20T11:15:34.231Z,11.87
2022-10-20T11:16:34.216Z,11.86
2022-10-20T11:17:34.483Z,11.84
2022-10-20T11:18:34.196Z,11.83
2022-10-20T11:19:34.179Z,11.83
2022-10-20T11:20:34.189Z,11.82
2022-10-20T11:21:34.162Z,11.80
2022-10-20T11:22:34.220Z,11.79
2022-10-20T11:24:34.134Z,11.82
2022-10-20T11:25:34.119Z,11.83
2022-10-20T11:26:34.136Z,11.84
2022-10-20T11:27:34.488Z,11.86
2022-10-20T11:28:34.152Z,11.88
2022-10-20T11:29:34.079Z,11.88
2022-10-20T11:30:34.078Z,11.88
2022-10-20T11:31:34.068Z,11.85
2022-10-20T11:33:35.771Z,11.75
2022-10-20T11:34:34.035Z,11.72
2022-10-20T11:35:34.018Z,11.72
2022-10-20T11:36:34.069Z,11.72
2022-10-20T11:37:34.423Z,11.73
2022-10-20T11:38:33.999Z,11.71
2022-10-20T11:39:33.982Z,11.69
2022-10-20T11:40:34.078Z,11.68
2022-10-20T11:41:34.004Z,11.69
2022-10-20T11:42:34.231Z,11.71
2022-10-20T11:43:33.949Z,11.74
2022-10-20T11:44:33.941Z,11.77
2022-10-20T11:45:33.969Z,11.80
2022-10-20T11:46:33.910Z,11.82
2022-10-20T11:47:33.945Z,11.84
2022-10-20T11:48:33.897Z,11.86
2022-10-20T11:49:33.924Z,11.86
2022-10-20T11:50:34.490Z,11.85
2022-10-20T11:51:33.861Z,11.82
2022-10-20T11:52:34.178Z,11.79
2022-10-20T11:53:33.831Z,11.77
2022-10-20T11:54:33.834Z,11.76
2022-10-20T11:55:33.885Z,11.75
2022-10-20T11:56:33.821Z,11.75
2022-10-20T11:57:33.804Z,11.73
2022-10-20T11:58:33.786Z,11.68
2022-10-20T11:59:33.774Z,11.62
2022-10-20T12:00:33.774Z,11.56
2022-10-20T12:01:33.871Z,11.53
2022-10-20T12:02:33.932Z,11.48
2022-10-20T12:03:33.734Z,11.44
2022-10-20T12:04:33.733Z,11.44
2022-10-20T12:05:33.715Z,11.49
2022-10-20T12:06:33.730Z,11.57
2022-10-20T12:07:33.769Z,11.66
2022-10-20T12:08:33.746Z,11.78
2022-10-20T12:09:33.678Z,11.93
2022-10-20T12:10:33.667Z,12.05
2022-10-20T12:11:33.664Z,12.13
2022-10-20T12:12:33.854Z,12.17
2022-10-20T12:13:33.685Z,12.23
2022-10-20T12:14:33.631Z,12.31
2022-10-20T12:15:33.611Z,12.42
2022-10-20T12:16:33.673Z,12.54
2022-10-20T12:17:33.587Z,12.66
2022-10-20T12:18:33.599Z,12.78
2022-10-20T12:19:33.630Z,12.92
2022-10-20T12:20:33.572Z,13.09
2022-10-20T12:21:34.482Z,13.21
2022-10-20T12:22:33.726Z,13.27
2022-10-20T12:23:33.544Z,13.29
2022-10-20T12:24:33.523Z,13.28
2022-10-20T12:25:33.566Z,13.28
2022-10-20T12:26:33.548Z,13.29
2022-10-20T12:27:33.489Z,13.29
2022-10-20T12:28:33.516Z,13.30
2022-10-20T12:29:33.467Z,13.28
2022-10-20T12:30:33.478Z,13.23
2022-10-20T12:31:33.551Z,13.21
2022-10-20T12:32:33.593Z,13.22
2022-10-20T12:33:33.427Z,13.25
2022-10-20T12:34:33.425Z,13.28
2022-10-20T12:35:33.454Z,13.28
2022-10-20T12:36:33.404Z,13.27
2022-10-20T12:37:33.511Z,13.24
2022-10-20T12:38:33.427Z,13.23
2022-10-20T12:39:33.422Z,13.23
2022-10-20T12:40:33.402Z,13.25
2022-10-20T12:41:33.400Z,13.29
2022-10-20T12:42:33.389Z,13.34
2022-10-20T12:43:33.335Z,13.38
2022-10-20T12:44:33.324Z,13.41
2022-10-20T12:45:33.319Z,13.43
2022-10-20T12:46:33.983Z,13.45
2022-10-20T12:47:33.435Z,13.47
2022-10-20T12:48:33.335Z,13.52
2022-10-20T12:49:33.368Z,13.59
2022-10-20T12:50:33.276Z,13.67
2022-10-20T12:51:33.293Z,13.73
2022-10-20T12:52:33.248Z,13.74
2022-10-20T12:53:33.229Z,13.73
2022-10-20T12:54:33.274Z,13.72
2022-10-20T12:55:35.046Z,13.72
2022-10-20T12:56:33.213Z,13.74
2022-10-20T12:57:33.181Z,13.75
2022-10-20T12:58:33.188Z,13.75
2022-10-20T12:59:33.164Z,13.72
2022-10-20T13:00:33.194Z,13.69
2022-10-20T13:01:33.192Z,13.67
2022-10-20T13:02:33.145Z,13.68
2022-10-20T13:03:33.182Z,13.70
2022-10-20T13:04:33.115Z,13.71
2022-10-20T13:05:33.094Z,13.70
2022-10-20T13:06:33.092Z,13.70
2022-10-20T13:07:33.511Z,13.71
2022-10-20T13:08:33.183Z,13.74
2022-10-20T13:09:33.057Z,13.76
2022-10-20T13:10:33.057Z,13.75
2022-10-20T13:11:33.039Z,13.70
2022-10-20T13:12:33.038Z,13.64
2022-10-20T13:14:33.015Z,13.53
2022-10-20T13:15:33.032Z,13.51